Time;durP1;ratioP1;P1;durP2;ratioP2;P2;SDS_P1;SDS_P2;PMS_P1;PMS_P2;Temp;Humidity;BMP_temperature;BMP_pressure;BME280_temperature;BME280_humidity;BME280_pressure;Samples;Min_cycle;Max_cycle;Signal;HPM_P1;HPM_P2
2023/02/02 00:00:51;;;;;;;106.00;5.90;;;;;;;12.89;100.00;98030.53;5034220;28;20051;-56
2023/02/02 00:03:16;;;;;;;150.27;7.25;;;;;;;11.17;100.00;98044.09;5036013;28;20509;-55
2023/02/02 00:05:50;;;;;;;131.27;6.53;;;;;;;13.05;100.00;98022.47;5036094;28;20032;-57
2023/02/02 00:08:17;;;;;;;100.85;6.38;;;;;;;13.58;100.00;98037.50;5035415;28;20515;-53
2023/02/02 00:10:43;;;;;;;135.55;6.20;;;;;;;12.24;100.00;98032.94;5034338;28;20116;-54
2023/02/02 00:13:09;;;;;;;104.95;5.65;;;;;;;13.52;100.00;98052.34;5036699;28;20513;-54
2023/02/02 00:15:35;;;;;;;136.93;6.80;;;;;;;13.22;100.00;98035.34;5036165;28;20033;-56
2023/02/02 00:18:00;;;;;;;92.30;6.15;;;;;;;12.11;100.00;98039.16;5034353;28;20083;-55
2023/02/02 00:20:26;;;;;;;123.55;6.45;;;;;;;10.77;100.00;98050.31;5035028;28;20144;-56
2023/02/02 00:22:51;;;;;;;135.57;6.60;;;;;;;11.68;100.00;98035.09;5036236;28;20028;-56
2023/02/02 00:25:16;;;;;;;114.60;6.30;;;;;;;12.30;100.00;98033.75;5034022;28;20024;-55
2023/02/02 00:27:43;;;;;;;146.10;7.18;;;;;;;11.72;100.00;98057.66;5034048;28;20797;-54
2023/02/02 00:30:09;;;;;;;146.18;7.07;;;;;;;9.85;100.00;98046.09;5033532;28;20036;-58
2023/02/02 00:32:34;;;;;;;112.90;6.00;;;;;;;10.98;100.00;98053.72;5036119;28;20025;-56
2023/02/02 00:34:59;;;;;;;150.68;6.95;;;;;;;11.16;100.00;98043.22;5035333;28;20130;-54
2023/02/02 00:37:25;;;;;;;119.00;5.97;;;;;;;8.07;100.00;98062.59;5033924;28;20064;-57
2023/02/02 00:39:50;;;;;;;161.98;7.22;;;;;;;6.99;100.00;98068.44;5035070;28;20036;-55
2023/02/02 00:42:16;;;;;;;143.23;6.47;;;;;;;6.09;100.00;98068.91;5034856;28;20482;-57
2023/02/02 00:47:25;;;;;;;142.50;6.50;;;;;;;5.86;100.00;98107.22;5034909;28;20052;-54
2023/02/02 00:49:51;;;;;;;143.40;6.13;;;;;;;5.41;100.00;98102.13;5035060;28;20029;-57
2023/02/02 00:52:16;;;;;;;140.65;5.75;;;;;;;5.26;100.00;98119.84;5034465;28;20033;-54
2023/02/02 00:54:41;;;;;;;130.85;5.47;;;;;;;4.86;100.00;98110.47;5034979;28;20017;-56
2023/02/02 00:57:11;;;;;;;130.13;5.45;;;;;;;5.29;100.00;98118.22;5033657;28;20494;-54
2023/02/02 00:59:36;;;;;;;165.45;6.63;;;;;;;4.98;100.00;98111.56;5033090;28;20021;-56
2023/02/02 01:02:02;;;;;;;102.90;4.47;;;;;;;5.13;100.00;98129.94;5035575;28;20060;-54
2023/02/02 01:04:27;;;;;;;137.23;5.57;;;;;;;6.17;100.00;98128.44;5035333;28;20067;-57
2023/02/02 01:06:53;;;;;;;125.57;4.95;;;;;;;4.58;100.00;98130.47;5034351;28;20147;-54
2023/02/02 01:09:18;;;;;;;131.13;5.05;;;;;;;4.29;100.00;98130.66;5033196;28;20029;-55
2023/02/02 01:11:43;;;;;;;134.52;5.20;;;;;;;3.99;100.00;98124.81;5031715;28;20041;-55
2023/02/02 01:14:09;;;;;;;116.32;4.53;;;;;;;4.43;100.00;98125.84;5017289;28;20095;-54
2023/02/02 01:16:34;;;;;;;138.32;5.20;;;;;;;4.45;100.00;98139.59;5015800;28;20881;-55
2023/02/02 01:18:59;;;;;;;119.78;4.53;;;;;;;4.11;100.00;98138.78;5033873;28;20032;-56
2023/02/02 01:21:25;;;;;;;102.00;4.00;;;;;;;3.80;100.00;98154.34;5030768;28;20137;-54
2023/02/02 01:23:50;;;;;;;177.95;6.32;;;;;;;3.99;100.00;98141.94;5031758;28;20033;-54
2023/02/02 01:26:16;;;;;;;108.72;4.25;;;;;;;3.51;100.00;98152.72;5032748;28;20589;-57
2023/02/02 01:28:42;;;;;;;98.38;4.00;;;;;;;3.46;100.00;98154.28;5033180;28;20635;-53
2023/02/02 01:31:12;;;;;;;133.85;5.30;;;;;;;3.88;100.00;98162.25;5034623;28;20043;-56
2023/02/02 01:33:38;;;;;;;122.88;4.75;;;;;;;3.08;100.00;98156.66;5019255;28;20095;-55
2023/02/02 01:36:06;;;;;;;140.23;5.13;;;;;;;3.15;100.00;98150.84;5033290;28;20041;-54
2023/02/02 01:38:32;;;;;;;109.22;4.25;;;;;;;2.98;100.00;98151.22;5034435;28;20489;-54
2023/02/02 01:40:58;;;;;;;134.93;5.05;;;;;;;3.43;100.00;98159.34;5033499;28;20565;-55
2023/02/02 01:43:43;;;;;;;127.55;4.93;;;;;;;3.51;100.00;98167.28;5035293;28;20029;-55
2023/02/02 01:46:21;;;;;;;133.00;5.13;;;;;;;3.20;100.00;98171.56;5023513;28;20053;-54
2023/02/02 01:48:52;;;;;;;130.00;4.93;;;;;;;2.84;100.00;98178.19;5035099;28;20176;-56
2023/02/02 01:51:21;;;;;;;157.77;5.63;;;;;;;2.71;100.00;98182.09;5034067;28;20041;-56
2023/02/02 01:53:49;;;;;;;127.85;4.88;;;;;;;2.58;100.00;98191.09;5035037;28;20490;-56
2023/02/02 01:56:40;;;;;;;143.13;5.15;;;;;;;2.73;100.00;98181.31;5033480;28;20040;-57
2023/02/02 01:59:06;;;;;;;111.00;4.20;;;;;;;2.47;100.00;98183.94;5032224;28;20040;-54
2023/02/02 02:11:56;;;;;;;416.30;17.02;;;;;;;2.89;100.00;98181.78;6043717;23;21285;-53
2023/02/02 02:29:58;;;;;;;720.40;29.02;;;;;;;3.29;100.00;98166.66;5929811;23;20269;-56
2023/02/02 03:00:50;;;;;;;204.98;7.03;;;;;;;2.27;100.00;98214.06;5574208;23;20040;-56
2023/02/02 03:03:21;;;;;;;109.55;4.13;;;;;;;2.16;100.00;98212.84;4897372;29;20040;-56
2023/02/02 03:06:15;;;;;;;175.52;6.32;;;;;;;2.20;100.00;98217.28;4901797;29;20102;-56
2023/02/02 03:08:47;;;;;;;118.07;4.38;;;;;;;2.18;100.00;98213.75;4900528;29;20549;-57
2023/02/02 03:11:14;;;;;;;119.20;4.40;;;;;;;2.06;100.00;98216.78;4902689;29;20132;-55
2023/02/02 03:13:41;;;;;;;125.68;4.72;;;;;;;2.23;100.00;98211.38;4904332;29;20453;-55
2023/02/02 03:16:07;;;;;;;114.68;4.38;;;;;;;2.23;100.00;98217.38;4901243;29;20043;-57
2023/02/02 03:18:33;;;;;;;117.32;4.50;;;;;;;2.25;100.00;98220.84;4903367;29;20034;-58
2023/02/02 03:20:59;;;;;;;146.82;5.35;;;;;;;2.28;100.00;98223.53;4903468;29;20043;-58
2023/02/02 03:23:24;;;;;;;131.02;4.88;;;;;;;2.36;100.00;98225.47;4904946;29;20028;-57
2023/02/02 03:25:50;;;;;;;102.90;3.97;;;;;;;2.25;100.00;98227.69;4903284;29;20602;-55
2023/02/02 03:28:17;;;;;;;136.52;4.82;;;;;;;2.31;100.00;98235.59;4903813;29;20501;-57
2023/02/02 03:30:45;;;;;;;116.55;4.50;;;;;;;2.37;100.00;98227.25;4902868;29;20506;-57
2023/02/02 03:33:12;;;;;;;136.70;4.93;;;;;;;2.36;100.00;98234.06;4904321;29;20032;-56
2023/02/02 03:35:38;;;;;;;122.18;4.68;;;;;;;2.51;100.00;98240.50;4904725;29;20528;-56
2023/02/02 03:38:03;;;;;;;131.30;4.78;;;;;;;2.37;100.00;98234.94;4904353;29;20028;-56
2023/02/02 03:40:29;;;;;;;162.80;5.63;;;;;;;2.31;100.00;98239.03;4903746;29;20051;-55
2023/02/02 03:42:54;;;;;;;111.05;4.28;;;;;;;2.29;100.00;98235.53;4902975;29;20120;-56
2023/02/02 03:45:20;;;;;;;143.48;5.15;;;;;;;2.39;100.00;98231.59;4901825;29;20118;-56
2023/02/02 03:47:45;;;;;;;119.13;4.55;;;;;;;2.68;100.00;98225.66;4904400;29;20406;-55
2023/02/02 03:50:11;;;;;;;115.07;4.35;;;;;;;2.67;100.00;98221.34;4901041;29;20365;-55
2023/02/02 03:52:36;;;;;;;162.40;5.82;;;;;;;2.48;100.00;98233.56;4903505;29;20505;-56
2023/02/02 03:55:01;;;;;;;116.30;4.35;;;;;;;2.64;100.00;98234.09;4903126;29;20107;-56
2023/02/02 03:57:27;;;;;;;107.72;4.07;;;;;;;2.69;100.00;98230.84;4904484;29;20060;-56
2023/02/02 03:59:52;;;;;;;177.27;6.35;;;;;;;2.58;100.00;98232.19;4903709;29;20031;-56
2023/02/02 04:02:17;;;;;;;137.20;4.97;;;;;;;2.77;100.00;98220.81;4900703;29;20406;-56
2023/02/02 04:04:43;;;;;;;151.27;5.43;;;;;;;2.53;100.00;98221.75;4904326;29;20036;-55
2023/02/02 04:07:09;;;;;;;142.63;5.30;;;;;;;2.85;100.00;98221.03;4903581;29;20066;-56
2023/02/02 04:09:34;;;;;;;118.75;4.55;;;;;;;2.72;100.00;98215.50;4904809;29;20040;-56
2023/02/02 04:12:00;;;;;;;176.27;6.15;;;;;;;2.61;100.00;98211.75;4898829;29;20265;-58
2023/02/02 04:14:25;;;;;;;114.72;4.40;;;;;;;2.32;100.00;98209.97;4903634;29;20560;-56
2023/02/02 04:16:50;;;;;;;108.82;4.43;;;;;;;2.21;100.00;98214.75;4902500;29;20214;-55
2023/02/02 04:19:16;;;;;;;157.55;5.65;;;;;;;1.98;100.00;98220.78;4907067;29;20063;-58
2023/02/02 04:21:41;;;;;;;131.40;5.05;;;;;;;1.89;100.00;98226.50;4904439;29;20047;-57
2023/02/02 04:24:10;;;;;;;155.82;5.72;;;;;;;1.81;100.00;98231.31;4903925;29;20156;-57
2023/02/02 04:26:36;;;;;;;144.10;5.55;;;;;;;1.60;100.00;98229.72;4903798;29;20097;-57
2023/02/02 04:29:01;;;;;;;149.13;5.82;;;;;;;1.68;100.00;98228.31;4903492;29;20083;-55
2023/02/02 04:31:28;;;;;;;153.60;6.07;;;;;;;1.74;100.00;98225.09;4902344;29;20160;-58
2023/02/02 04:33:54;;;;;;;128.32;5.28;;;;;;;1.75;100.00;98238.81;4902406;29;20453;-56
2023/02/02 04:36:20;;;;;;;161.43;6.25;;;;;;;1.71;100.00;98244.66;4903904;29;20265;-57
2023/02/02 04:38:51;;;;;;;122.18;5.15;;;;;;;1.77;100.00;98257.69;4904777;29;20126;-57
2023/02/02 04:41:20;;;;;;;141.23;5.77;;;;;;;1.77;100.00;98261.13;4901075;29;20047;-56
2023/02/02 04:43:46;;;;;;;171.57;6.97;;;;;;;1.56;100.00;98271.50;4903282;29;20032;-56
2023/02/02 04:46:12;;;;;;;120.68;5.22;;;;;;;1.67;100.00;98266.75;4905930;29;20043;-58
2023/02/02 04:48:39;;;;;;;161.45;5.95;;;;;;;1.55;100.00;98260.34;4903674;29;20167;-55
2023/02/02 04:51:07;;;;;;;121.82;5.22;;;;;;;1.51;100.00;98272.97;4902534;29;20151;-57
2023/02/02 04:53:32;;;;;;;164.40;6.82;;;;;;;1.57;100.00;98283.47;4901830;29;20497;-56
2023/02/02 04:56:17;;;;;;;136.95;6.75;;;;;;;1.54;100.00;98274.00;4902837;29;20036;-56
2023/02/02 04:58:43;;;;;;;149.27;7.85;;;;;;;1.48;100.00;98260.06;4903695;29;20027;-56
2023/02/02 05:01:28;;;;;;;159.48;6.38;;;;;;;1.61;100.00;98259.72;4902866;29;20078;-58
2023/02/02 05:03:53;;;;;;;137.20;5.55;;;;;;;1.80;100.00;98268.06;4901300;29;20564;-55
2023/02/02 05:06:19;;;;;;;115.28;4.95;;;;;;;1.52;100.00;98256.81;4900923;29;20056;-56
2023/02/02 05:08:46;;;;;;;111.85;5.28;;;;;;;2.03;100.00;98257.72;4905397;29;20419;-58
2023/02/02 05:11:17;;;;;;;126.10;5.20;;;;;;;1.92;100.00;98260.81;4902147;29;20052;-56
2023/02/02 05:13:48;;;;;;;112.50;4.70;;;;;;;2.14;100.00;98264.13;4904603;29;20030;-58
2023/02/02 05:16:14;;;;;;;106.18;4.13;;;;;;;2.30;100.00;98262.09;4901924;29;20040;-56
2023/02/02 05:18:47;;;;;;;110.57;4.40;;;;;;;2.25;100.00;98273.88;4902259;29;20028;-56
2023/02/02 05:21:12;;;;;;;154.90;5.72;;;;;;;2.31;100.00;98274.09;4902271;29;20055;-57
2023/02/02 05:23:37;;;;;;;135.15;5.15;;;;;;;2.26;100.00;98280.78;4902871;29;20418;-56
2023/02/02 05:26:03;;;;;;;118.95;4.43;;;;;;;2.26;100.00;98279.06;4902666;29;20553;-55
2023/02/02 05:28:28;;;;;;;125.38;4.72;;;;;;;2.48;100.00;98282.38;4902178;29;21040;-57
2023/02/02 05:30:54;;;;;;;111.63;4.40;;;;;;;2.50;100.00;98282.41;4900412;29;20044;-55
2023/02/02 05:33:19;;;;;;;141.70;5.30;;;;;;;2.57;100.00;98279.25;4900674;29;20040;-56
2023/02/02 05:35:47;;;;;;;118.13;4.50;;;;;;;2.82;100.00;98275.78;4902886;29;20032;-56
2023/02/02 05:38:12;;;;;;;123.22;4.63;;;;;;;2.68;100.00;98269.31;4903999;29;20070;-55
2023/02/02 05:40:37;;;;;;;124.15;4.68;;;;;;;3.25;100.00;98277.94;4904307;29;20775;-55
2023/02/02 05:43:03;;;;;;;135.45;5.00;;;;;;;2.81;100.00;98270.56;4903873;29;20028;-56
2023/02/02 05:45:28;;;;;;;147.52;5.30;;;;;;;2.85;100.00;98280.13;4905894;29;20040;-55
2023/02/02 05:47:54;;;;;;;118.93;4.57;;;;;;;3.03;100.00;98282.44;4905154;29;20024;-57
2023/02/02 05:50:21;;;;;;;98.13;4.13;;;;;;;3.11;100.00;98290.38;4907329;29;20035;-54
2023/02/02 05:52:47;;;;;;;135.63;4.95;;;;;;;2.65;100.00;98298.34;4902975;29;20235;-55
2023/02/02 05:55:13;;;;;;;138.10;5.13;;;;;;;2.54;100.00;98294.53;4905133;29;20545;-55
2023/02/02 05:57:38;;;;;;;138.13;5.20;;;;;;;2.63;100.00;98297.41;4906006;29;20043;-56
2023/02/02 06:00:04;;;;;;;149.02;5.43;;;;;;;2.50;100.00;98295.25;4906228;29;20059;-55
2023/02/02 06:02:29;;;;;;;130.95;5.10;;;;;;;2.60;100.00;98297.34;4886612;29;20049;-55
2023/02/02 06:04:55;;;;;;;163.32;6.03;;;;;;;2.89;100.00;98291.41;4887877;29;20422;-54
2023/02/02 06:07:20;;;;;;;96.90;3.80;;;;;;;2.64;100.00;98301.75;4903303;29;20478;-55
2023/02/02 06:09:45;;;;;;;160.48;5.82;;;;;;;2.87;100.00;98301.63;4905157;29;20760;-56
2023/02/02 06:12:11;;;;;;;127.03;4.90;;;;;;;2.44;100.00;98312.22;4904989;29;20070;-56
2023/02/02 06:14:36;;;;;;;117.35;4.38;;;;;;;2.55;100.00;98306.56;4904176;29;20504;-55
2023/02/02 06:17:02;;;;;;;126.88;4.47;;;;;;;2.64;100.00;98304.31;4906333;29;20036;-56
2023/02/02 06:19:27;;;;;;;146.65;5.18;;;;;;;2.84;100.00;98309.22;4905540;29;20110;-55
2023/02/02 06:21:52;;;;;;;111.35;4.18;;;;;;;2.78;100.00;98301.34;4905107;29;20033;-56
2023/02/02 06:24:18;;;;;;;149.23;5.25;;;;;;;3.05;100.00;98293.66;4903098;29;20067;-56
2023/02/02 06:26:43;;;;;;;105.00;4.00;;;;;;;3.08;100.00;98291.16;4903993;29;20086;-55
2023/02/02 06:29:12;;;;;;;124.30;4.50;;;;;;;2.85;100.00;98295.53;4905544;29;20561;-57
2023/02/02 06:31:38;;;;;;;130.18;4.82;;;;;;;2.99;100.00;98294.31;4905338;29;20044;-57
2023/02/02 06:34:03;;;;;;;114.00;4.32;;;;;;;3.06;100.00;98295.38;4906000;29;20391;-57
2023/02/02 06:36:29;;;;;;;148.20;5.30;;;;;;;2.98;100.00;98292.53;4903050;29;20051;-56
2023/02/02 06:38:56;;;;;;;121.95;4.55;;;;;;;3.07;100.00;98301.38;4906053;29;20486;-55
2023/02/02 06:41:22;;;;;;;120.70;4.45;;;;;;;3.27;100.00;98302.03;4905991;29;20040;-56
2023/02/02 06:43:48;;;;;;;116.68;4.22;;;;;;;3.17;100.00;98306.00;4906113;29;20031;-55
2023/02/02 06:46:14;;;;;;;115.22;4.32;;;;;;;3.27;100.00;98298.56;4901940;29;20056;-56
2023/02/02 06:48:39;;;;;;;139.40;5.18;;;;;;;3.40;100.00;98308.41;4900240;29;20036;-57
2023/02/02 06:51:05;;;;;;;118.03;4.55;;;;;;;3.14;100.00;98311.03;4901399;29;20111;-56
2023/02/02 06:53:31;;;;;;;116.60;4.28;;;;;;;2.96;100.00;98309.63;4901790;29;20456;-57
2023/02/02 06:56:02;;;;;;;143.98;5.25;;;;;;;3.15;100.00;98319.63;4901786;29;20366;-56
2023/02/02 06:58:29;;;;;;;109.03;4.15;;;;;;;3.11;100.00;98308.34;4904187;29;20031;-54
2023/02/02 07:01:03;;;;;;;134.25;4.82;;;;;;;3.10;100.00;98314.31;4901837;29;20025;-56
2023/02/02 07:03:28;;;;;;;126.35;4.65;;;;;;;2.98;100.00;98304.53;4905504;29;20351;-55
2023/02/02 07:05:53;;;;;;;151.95;5.45;;;;;;;2.77;100.00;98305.59;4902314;29;20438;-55
2023/02/02 07:08:19;;;;;;;96.88;3.75;;;;;;;2.76;100.00;98308.97;4905595;29;20021;-57
2023/02/02 07:10:44;;;;;;;90.90;3.60;;;;;;;2.91;100.00;98305.16;4904395;29;20510;-55
2023/02/02 07:13:10;;;;;;;150.30;5.38;;;;;;;2.85;100.00;98314.41;4904342;29;20054;-55
2023/02/02 07:15:38;;;;;;;131.43;4.72;;;;;;;2.80;100.00;98307.38;4904654;29;20302;-56
2023/02/02 07:18:03;;;;;;;102.10;3.85;;;;;;;2.80;100.00;98317.66;4905044;29;20990;-58
2023/02/02 07:20:29;;;;;;;105.47;4.07;;;;;;;2.68;100.00;98313.00;4904542;29;20521;-53
2023/02/02 07:22:54;;;;;;;116.63;4.35;;;;;;;2.71;100.00;98324.22;4903188;29;20104;-53
2023/02/02 07:25:20;;;;;;;155.27;5.47;;;;;;;2.73;100.00;98326.84;4903122;29;20020;-56
2023/02/02 07:27:46;;;;;;;128.60;4.75;;;;;;;2.79;100.00;98321.06;4903221;29;20059;-56
2023/02/02 07:30:12;;;;;;;130.35;4.65;;;;;;;2.83;100.00;98323.75;4903456;29;20055;-57
2023/02/02 07:32:37;;;;;;;147.60;5.40;;;;;;;2.95;100.00;98335.28;4903876;29;20028;-55
2023/02/02 07:35:03;;;;;;;107.40;4.00;;;;;;;3.09;100.00;98328.88;4905879;29;20035;-57
2023/02/02 07:37:28;;;;;;;127.50;4.68;;;;;;;3.11;100.00;98336.63;4903090;29;20409;-56
2023/02/02 07:39:54;;;;;;;145.02;5.05;;;;;;;3.18;100.00;98337.69;4902063;29;20752;-56
2023/02/02 07:42:19;;;;;;;96.10;3.75;;;;;;;3.20;100.00;98334.34;4902345;29;20091;-55
2023/02/02 07:44:44;;;;;;;123.82;4.50;;;;;;;3.25;100.00;98324.22;4904579;29;20063;-55
2023/02/02 07:47:10;;;;;;;136.02;4.80;;;;;;;3.69;100.00;98329.00;4906836;29;20505;-55
2023/02/02 07:49:35;;;;;;;137.00;5.05;;;;;;;3.79;100.00;98322.41;4903820;29;20529;-54
2023/02/02 07:52:00;;;;;;;121.28;4.40;;;;;;;3.96;100.00;98330.59;4903295;29;20040;-56
2023/02/02 07:54:26;;;;;;;133.38;4.88;;;;;;;4.14;100.00;98331.97;4903704;29;20119;-54
2023/02/02 07:56:51;;;;;;;128.75;4.63;;;;;;;3.86;100.00;98328.63;4902256;29;20035;-54
2023/02/02 07:59:17;;;;;;;125.32;4.68;;;;;;;3.74;100.00;98340.28;4903095;29;20054;-56
2023/02/02 08:01:42;;;;;;;119.82;4.43;;;;;;;3.61;100.00;98348.47;4902338;29;20529;-54
2023/02/02 08:04:08;;;;;;;153.85;5.53;;;;;;;3.57;100.00;98344.06;4901318;29;20584;-57
2023/02/02 08:06:38;;;;;;;114.95;4.28;;;;;;;3.06;100.00;98348.47;4904586;29;20091;-56
2023/02/02 08:09:06;;;;;;;142.65;5.05;;;;;;;3.30;100.00;98355.22;4905393;29;20025;-55
2023/02/02 08:11:33;;;;;;;118.40;4.30;;;;;;;3.27;100.00;98350.88;4903259;29;20091;-56
2023/02/02 08:14:00;;;;;;;87.93;3.42;;;;;;;3.30;100.00;98350.09;4903550;29;20643;-56
2023/02/02 08:16:27;;;;;;;165.90;5.80;;;;;;;3.08;100.00;98357.13;4900677;29;20043;-55
2023/02/02 08:18:53;;;;;;;91.10;3.50;;;;;;;3.08;100.00;98347.69;4903224;29;20177;-57
2023/02/02 08:21:19;;;;;;;106.35;3.95;;;;;;;2.93;100.00;98358.34;4899042;29;20048;-55
2023/02/02 08:23:45;;;;;;;85.90;3.35;;;;;;;2.82;100.00;98357.13;4902135;29;20549;-56
2023/02/02 08:26:13;;;;;;;109.15;4.03;;;;;;;2.80;100.00;98351.94;4904758;29;20987;-55
2023/02/02 08:28:40;;;;;;;142.77;5.13;;;;;;;2.64;100.00;98358.25;4904183;29;20144;-55
2023/02/02 08:31:17;;;;;;;110.15;4.10;;;;;;;2.82;100.00;98354.56;4900791;29;20040;-56
2023/02/02 08:33:43;;;;;;;176.77;6.05;;;;;;;2.67;100.00;98348.06;4900619;29;20518;-57
2023/02/02 08:36:12;;;;;;;108.25;3.92;;;;;;;2.68;100.00;98357.50;4902250;29;20274;-56
2023/02/02 08:38:37;;;;;;;126.90;4.53;;;;;;;2.52;100.00;98360.41;4903986;29;20454;-57
2023/02/02 08:41:04;;;;;;;93.47;3.50;;;;;;;2.54;100.00;98364.75;4903539;29;20742;-54
2023/02/02 08:43:29;;;;;;;135.18;4.78;;;;;;;2.55;100.00;98365.63;4903909;29;20040;-56
2023/02/02 08:45:55;;;;;;;154.30;5.35;;;;;;;2.47;100.00;98361.09;4904271;29;20050;-56
2023/02/02 08:48:20;;;;;;;105.85;4.05;;;;;;;2.41;100.00;98368.56;4904110;29;20060;-56
2023/02/02 08:50:52;;;;;;;115.82;4.28;;;;;;;2.56;100.00;98365.69;4905195;29;20410;-55
2023/02/02 08:53:17;;;;;;;121.88;4.38;;;;;;;2.44;100.00;98360.09;4898770;29;20219;-56
2023/02/02 08:55:43;;;;;;;95.03;3.60;;;;;;;2.36;100.00;98362.41;4902281;29;20681;-55
2023/02/02 08:58:09;;;;;;;144.95;5.13;;;;;;;2.39;100.00;98365.09;4900692;29;20092;-56
2023/02/02 09:00:34;;;;;;;107.15;4.03;;;;;;;2.26;100.00;98361.19;4902676;29;20624;-56
2023/02/02 09:02:59;;;;;;;130.55;4.70;;;;;;;2.44;100.00;98361.00;4903595;29;20036;-58
2023/02/02 09:05:25;;;;;;;150.35;5.43;;;;;;;2.28;100.00;98361.25;4901261;29;20032;-57
2023/02/02 09:07:50;;;;;;;110.10;4.10;;;;;;;2.48;100.00;98369.66;4902940;29;20076;-56
2023/02/02 09:10:16;;;;;;;147.15;4.95;;;;;;;2.45;100.00;98370.44;4901355;29;20275;-56
2023/02/02 09:12:41;;;;;;;114.28;4.28;;;;;;;2.25;100.00;98364.59;4901100;29;20031;-57
2023/02/02 09:15:07;;;;;;;90.30;3.47;;;;;;;2.39;100.00;98367.66;4904138;29;20122;-57
2023/02/02 09:17:32;;;;;;;133.32;4.88;;;;;;;2.51;100.00;98367.22;4901956;29;20576;-56
2023/02/02 09:19:57;;;;;;;142.88;5.03;;;;;;;2.43;100.00;98369.53;4901557;29;20059;-55
2023/02/02 09:22:23;;;;;;;152.90;5.38;;;;;;;2.33;100.00;98368.31;4903374;29;20334;-56
2023/02/02 09:24:48;;;;;;;113.70;4.22;;;;;;;2.55;100.00;98370.75;4901603;29;20024;-55
2023/02/02 09:27:13;;;;;;;96.07;3.85;;;;;;;2.47;100.00;98373.94;4900958;29;20036;-59
2023/02/02 09:29:39;;;;;;;187.10;6.45;;;;;;;2.27;100.00;98372.34;4901740;29;20040;-55
2023/02/02 09:32:04;;;;;;;118.05;4.35;;;;;;;2.51;100.00;98374.03;4902621;29;20040;-58
2023/02/02 09:34:29;;;;;;;132.98;4.70;;;;;;;2.21;100.00;98376.47;4903172;29;20044;-55
2023/02/02 09:36:55;;;;;;;135.35;4.82;;;;;;;2.31;100.00;98375.06;4900440;29;20587;-54
2023/02/02 09:39:20;;;;;;;113.13;4.22;;;;;;;2.53;100.00;98373.25;4901258;29;20080;-54
2023/02/02 09:42:15;;;;;;;113.18;7.22;;;;;;;2.59;100.00;98372.59;4901213;29;20553;-55
2023/02/02 09:45:06;;;;;;;100.70;3.80;;;;;;;2.78;100.00;98374.13;4902133;29;20079;-56
2023/02/02 09:47:54;;;;;;;76.43;3.22;;;;;;;2.72;100.00;98384.19;4903694;29;20090;-57
2023/02/02 09:50:22;;;;;;;113.80;4.30;;;;;;;2.95;100.00;98374.69;4900649;29;20042;-57
2023/02/02 09:52:59;;;;;;;118.20;4.43;;;;;;;2.83;100.00;98375.13;4899465;29;20056;-54
2023/02/02 09:55:38;;;;;;;130.50;4.65;;;;;;;2.86;100.00;98382.09;4901521;29;20059;-58
2023/02/02 09:58:26;;;;;;;161.75;5.57;;;;;;;2.75;100.00;98381.75;4901254;29;20103;-55
2023/02/02 10:01:12;;;;;;;103.72;3.92;;;;;;;2.79;100.00;98393.88;4902354;29;20032;-56
2023/02/02 10:03:55;;;;;;;117.13;4.63;;;;;;;2.71;100.00;98385.88;4901653;29;20633;-57
2023/02/02 10:06:42;;;;;;;153.57;5.82;;;;;;;2.59;100.00;98388.00;4901240;29;20082;-57
2023/02/02 10:09:43;;;;;;;115.40;4.43;;;;;;;2.83;100.00;98389.69;4901699;29;20055;-56
2023/02/02 10:12:34;;;;;;;110.30;4.20;;;;;;;2.81;100.00;98391.31;4900514;29;20681;-55
2023/02/02 10:15:44;;;;;;;110.72;4.25;;;;;;;2.78;100.00;98384.38;4900852;29;20114;-58
2023/02/02 10:18:18;;;;;;;104.60;4.20;;;;;;;2.67;100.00;98390.88;4901614;29;20068;-55
2023/02/02 10:20:56;;;;;;;142.88;5.28;;;;;;;2.96;100.00;98385.84;4903710;29;20092;-55
2023/02/02 10:23:24;;;;;;;100.03;3.92;;;;;;;2.73;100.00;98386.81;4906403;29;20051;-55
2023/02/02 10:26:00;;;;;;;109.78;4.47;;;;;;;2.53;100.00;98387.81;4904772;29;20490;-56
2023/02/02 10:29:00;;;;;;;93.55;3.78;;;;;;;2.83;100.00;98379.41;4905142;29;20134;-55
2023/02/02 10:32:01;;;;;;;110.53;4.20;;;;;;;2.85;100.00;98372.63;4899607;29;20048;-56
2023/02/02 10:34:42;;;;;;;110.93;4.43;;;;;;;3.12;100.00;98376.97;4906153;29;20046;-56
2023/02/02 10:37:18;;;;;;;129.02;4.90;;;;;;;2.91;100.00;98375.41;4901079;29;20514;-57
2023/02/02 10:40:02;;;;;;;131.27;5.57;;;;;;;3.12;100.00;98371.81;4904412;29;20130;-55
2023/02/02 10:42:41;;;;;;;97.70;4.03;;;;;;;3.40;100.00;98370.13;4903101;29;20044;-56
2023/02/02 10:45:13;;;;;;;140.65;5.32;;;;;;;3.16;100.00;98363.38;4903602;29;20036;-58
2023/02/02 10:47:38;;;;;;;107.47;4.30;;;;;;;3.16;100.00;98365.94;4905036;29;20051;-57
2023/02/02 10:50:12;;;;;;;153.48;5.78;;;;;;;2.95;100.00;98364.41;4904648;29;20043;-56
2023/02/02 10:52:44;;;;;;;106.43;4.28;;;;;;;2.93;100.00;98376.31;4902395;29;20024;-57
2023/02/02 10:55:09;;;;;;;148.18;5.50;;;;;;;3.25;100.00;98367.94;4904054;29;20398;-55
2023/02/02 10:57:56;;;;;;;108.80;4.30;;;;;;;3.02;100.00;98365.50;4903275;29;20107;-57
2023/02/02 11:00:29;;;;;;;138.52;5.32;;;;;;;3.15;100.00;98378.75;4901782;29;20058;-55
2023/02/02 11:02:54;;;;;;;107.53;4.25;;;;;;;3.01;100.00;98370.56;4906519;29;20068;-57
2023/02/02 11:08:19;;;;;;;100.82;4.07;;;;;;;3.18;100.00;98369.44;4902546;29;20087;-57
2023/02/02 11:10:48;;;;;;;118.53;4.72;;;;;;;3.07;100.00;98360.50;4905221;29;20131;-56
2023/02/02 11:13:32;;;;;;;117.00;4.60;;;;;;;3.19;100.00;98354.91;4906569;29;20029;-56
2023/02/02 11:16:30;;;;;;;105.28;4.15;;;;;;;3.11;100.00;98359.75;4905816;29;20515;-55
2023/02/02 11:18:56;;;;;;;114.32;4.50;;;;;;;3.17;100.00;98361.66;4881222;29;20100;-55
2023/02/02 11:21:27;;;;;;;97.43;4.03;;;;;;;2.98;100.00;98354.22;4904915;29;20439;-56
2023/02/02 11:24:00;;;;;;;125.97;5.30;;;;;;;2.57;100.00;98358.84;4903980;29;20120;-56
2023/02/02 11:26:38;;;;;;;96.50;4.00;;;;;;;2.77;100.00;98361.22;4904835;29;20047;-56
2023/02/02 11:29:04;;;;;;;132.23;4.97;;;;;;;2.93;100.00;98360.06;4905136;29;20122;-54
2023/02/02 11:31:31;;;;;;;98.15;4.13;;;;;;;2.94;100.00;98364.38;4902135;29;20087;-56
2023/02/02 11:34:17;;;;;;;126.88;5.03;;;;;;;2.72;100.00;98359.38;4903054;29;20062;-54
2023/02/02 11:37:01;;;;;;;78.30;3.33;;;;;;;3.28;100.00;98362.00;4904248;29;20745;-57
2023/02/02 11:39:26;;;;;;;103.47;4.10;;;;;;;2.86;100.00;98356.41;4905593;29;20112;-57
2023/02/02 11:42:07;;;;;;;128.90;5.15;;;;;;;3.14;100.00;98357.31;4902283;29;20167;-56
2023/02/02 11:44:34;;;;;;;98.45;3.95;;;;;;;3.32;100.00;98348.44;4904587;29;20027;-56
2023/02/02 11:47:03;;;;;;;130.02;5.03;;;;;;;3.29;100.00;98350.88;4902890;29;20071;-55
2023/02/02 11:49:32;;;;;;;120.20;4.85;;;;;;;3.07;100.00;98351.09;4901268;29;20028;-56
2023/02/02 11:52:06;;;;;;;114.88;4.65;;;;;;;3.25;100.00;98349.94;4902496;29;20399;-54
2023/02/02 11:54:37;;;;;;;127.72;5.05;;;;;;;3.53;100.00;98344.78;4903980;29;20052;-57
2023/02/02 11:57:17;;;;;;;103.00;4.18;;;;;;;3.52;100.00;98338.75;4903859;29;20044;-54
2023/02/02 11:59:44;;;;;;;127.88;5.07;;;;;;;3.36;100.00;98338.31;4904438;29;20039;-55
2023/02/02 12:02:09;;;;;;;111.20;4.55;;;;;;;3.57;100.00;98337.22;4902392;29;20043;-56
2023/02/02 12:04:34;;;;;;;128.68;5.05;;;;;;;3.68;100.00;98334.97;4903669;29;20036;-53
2023/02/02 12:06:59;;;;;;;100.00;4.00;;;;;;;3.71;100.00;98324.75;4904165;29;20383;-54
2023/02/02 12:09:26;;;;;;;146.30;5.50;;;;;;;3.79;100.00;98327.56;4903546;29;20024;-56
2023/02/02 12:12:25;;;;;;;111.97;4.45;;;;;;;4.04;100.00;98329.13;4903201;29;20569;-55
2023/02/02 12:15:13;;;;;;;119.22;4.70;;;;;;;4.36;100.00;98320.56;4903524;29;20040;-55
2023/02/02 12:17:46;;;;;;;117.75;4.68;;;;;;;4.75;100.00;98324.13;4904163;29;20040;-58
2023/02/02 12:20:26;;;;;;;;;;;;;;;5.03;100.00;98316.19;4901500;29;20489;-55
2023/02/02 12:22:57;;;;;;;133.55;5.30;;;;;;;5.09;100.00;98316.38;4902474;29;19969;-57
2023/02/02 12:25:34;;;;;;;106.43;4.38;;;;;;;5.34;100.00;98320.38;4890932;29;20393;-56